createdAt,value
2018-11-23T00:00:18.626Z,0.44
2018-11-23T00:03:07.740Z,0.59
2018-11-23T00:05:56.988Z,0.65
2018-11-23T00:11:43.087Z,0.44
2018-11-23T00:14:26.242Z,0.49
2018-11-23T00:17:15.384Z,0.48
2018-11-23T00:22:48.407Z,0.51
2018-11-23T00:28:26.052Z,0.98
2018-11-23T00:31:15.527Z,1.03
2018-11-23T00:33:59.006Z,1.22
2018-11-23T00:36:48.132Z,1.47
2018-11-23T00:39:37.024Z,1.55
2018-11-23T00:42:26.152Z,1.63
2018-11-23T00:45:14.020Z,1.43
2018-11-23T00:48:03.117Z,0.96
2018-11-23T00:50:45.448Z,0.75
2018-11-23T00:59:03.912Z,0.53
2018-11-23T01:02:11.876Z,0.71
2018-11-23T01:04:55.192Z,0.94
2018-11-23T01:07:44.884Z,1.16
2018-11-23T01:10:33.996Z,1.41
2018-11-23T01:13:23.119Z,1.40
2018-11-23T01:16:12.390Z,1.45
2018-11-23T01:19:01.551Z,1.17
2018-11-23T01:21:50.772Z,0.60
2018-11-23T01:24:39.998Z,0.41
2018-11-23T01:27:29.274Z,0.37
2018-11-23T01:30:23.345Z,0.46
2018-11-23T01:33:12.559Z,0.42
2018-11-23T01:36:01.864Z,0.25
2018-11-23T01:38:51.010Z,0.36
2018-11-23T01:41:40.778Z,0.70
2018-11-23T01:44:30.069Z,0.90
2018-11-23T01:47:21.033Z,0.83
2018-11-23T01:50:30.623Z,0.95
2018-11-23T01:56:10.015Z,0.82
2018-11-23T02:05:13.911Z,0.49
2018-11-23T02:10:52.643Z,0.66
2018-11-23T02:16:31.211Z,0.43
2018-11-23T02:19:20.820Z,0.50
2018-11-23T02:25:01.265Z,0.60
2018-11-23T02:27:50.772Z,0.46
2018-11-23T02:30:39.845Z,0.63
2018-11-23T02:33:22.567Z,0.55
2018-11-23T02:36:11.833Z,0.27
2018-11-23T02:39:01.004Z,0.42
2018-11-23T02:41:50.300Z,0.42
2018-11-23T02:44:20.474Z,0.51
2018-11-23T02:47:10.444Z,0.73
2018-11-23T02:49:59.699Z,0.73
2018-11-23T02:52:42.485Z,0.85
2018-11-23T02:55:31.806Z,0.96
2018-11-23T02:58:21.055Z,1.15
2018-11-23T03:04:16.102Z,1.11
2018-11-23T03:06:45.762Z,0.93
2018-11-23T03:09:34.931Z,1.04
2018-11-23T03:12:24.110Z,1.00
2018-11-23T03:15:06.570Z,1.10
2018-11-23T03:17:55.754Z,0.59
2018-11-23T03:20:37.962Z,0.91
2018-11-23T03:26:19.420Z,1.14
2018-11-23T03:29:08.938Z,1.39
2018-11-23T03:31:58.070Z,1.44
2018-11-23T03:34:40.600Z,1.38
2018-11-23T03:37:29.726Z,1.45
2018-11-23T03:40:18.922Z,1.33
2018-11-23T03:43:08.110Z,1.34
2018-11-23T03:45:57.272Z,1.38
2018-11-23T03:48:46.418Z,1.28
2018-11-23T03:51:35.575Z,1.38
2018-11-23T03:54:24.799Z,1.46
2018-11-23T03:57:14.411Z,1.55
2018-11-23T04:00:03.805Z,1.43
2018-11-23T04:02:53.873Z,1.12
2018-11-23T04:05:43.053Z,1.01
2018-11-23T04:08:32.252Z,0.94
2018-11-23T04:11:21.638Z,1.07
2018-11-23T04:14:10.829Z,1.15
2018-11-23T04:16:59.919Z,1.18
2018-11-23T04:19:42.639Z,0.97
2018-11-23T04:22:31.745Z,1.22
2018-11-23T04:25:14.409Z,1.37
2018-11-23T04:31:09.485Z,1.50
2018-11-23T04:37:01.472Z,1.61
2018-11-23T04:39:51.219Z,1.62
2018-11-23T04:45:45.759Z,1.60
2018-11-23T04:48:29.457Z,1.39
2018-11-23T04:51:12.986Z,1.52
2018-11-23T04:57:02.231Z,0.75
2018-11-23T04:59:51.418Z,0.56
2018-11-23T05:02:41.578Z,0.55
2018-11-23T05:05:30.689Z,0.47
2018-11-23T05:08:20.928Z,0.44
2018-11-23T05:16:32.366Z,0.50
2018-11-23T05:19:21.517Z,0.58
2018-11-23T05:22:10.665Z,0.78
2018-11-23T05:24:59.764Z,0.99
2018-11-23T05:27:43.971Z,0.81
2018-11-23T05:33:21.035Z,0.65
2018-11-23T05:36:10.441Z,0.52
2018-11-23T05:38:51.976Z,0.87
2018-11-23T05:41:41.065Z,0.98
2018-11-23T05:44:23.205Z,1.05
2018-11-23T05:47:12.346Z,0.88
2018-11-23T05:49:54.711Z,0.83
2018-11-23T05:52:44.568Z,1.02
2018-11-23T05:55:27.003Z,0.83
2018-11-23T05:58:16.133Z,0.72
2018-11-23T06:00:58.194Z,0.67
2018-11-23T06:03:47.363Z,0.69
2018-11-23T06:06:30.317Z,0.76
2018-11-23T06:09:19.838Z,0.79
2018-11-23T06:12:02.459Z,1.01
2018-11-23T06:14:51.507Z,1.00
2018-11-23T06:17:33.721Z,0.85
2018-11-23T06:20:24.159Z,0.87
2018-11-23T06:23:06.557Z,0.86
2018-11-23T06:26:17.274Z,0.98
2018-11-23T06:28:59.481Z,0.98
2018-11-23T06:31:48.561Z,0.96
2018-11-23T06:34:31.063Z,1.02
2018-11-23T06:37:20.101Z,1.01
2018-11-23T06:40:01.852Z,1.04
2018-11-23T06:42:50.925Z,0.97
2018-11-23T06:45:40.881Z,0.90
2018-11-23T06:48:30.043Z,0.91
2018-11-23T06:51:12.473Z,0.71
2018-11-23T06:54:01.535Z,0.69
2018-11-23T06:56:47.710Z,0.71
2018-11-23T06:59:36.742Z,0.77
2018-11-23T07:02:21.389Z,0.88
2018-11-23T07:05:10.867Z,0.94
2018-11-23T07:07:52.834Z,0.87
2018-11-23T07:10:42.813Z,0.89
2018-11-23T07:13:27.139Z,0.76
2018-11-23T07:16:16.255Z,0.83
2018-11-23T07:18:58.078Z,0.92
2018-11-23T07:24:53.151Z,0.96
2018-11-23T07:27:35.228Z,0.95
2018-11-23T07:30:19.609Z,0.92
2018-11-23T07:33:08.802Z,0.97
2018-11-23T07:35:59.255Z,0.95
2018-11-23T07:38:48.344Z,0.95
2018-11-23T07:42:16.104Z,1.03
2018-11-23T07:45:05.760Z,0.89
2018-11-23T07:47:54.901Z,1.08
2018-11-23T07:50:44.112Z,1.17
2018-11-23T07:53:33.304Z,1.13
2018-11-23T07:56:22.423Z,1.23
2018-11-23T07:59:11.789Z,1.44
2018-11-23T08:02:00.937Z,1.60
2018-11-23T08:04:50.099Z,1.74
2018-11-23T08:07:39.229Z,1.85
2018-11-23T08:10:27.386Z,1.71
2018-11-23T08:13:09.645Z,1.63
2018-11-23T08:15:58.855Z,1.59
2018-11-23T08:18:47.983Z,1.51
2018-11-23T08:21:37.043Z,1.37
2018-11-23T08:24:19.155Z,1.38
2018-11-23T08:27:08.161Z,1.48
2018-11-23T08:33:04.977Z,1.43
2018-11-23T08:35:47.513Z,1.50
2018-11-23T08:38:36.641Z,1.41
2018-11-23T08:41:25.827Z,1.43
2018-11-23T08:44:15.016Z,1.43
2018-11-23T08:47:04.209Z,1.42
2018-11-23T08:49:53.349Z,1.43
2018-11-23T08:52:42.613Z,1.57
2018-11-23T08:55:31.993Z,1.49
2018-11-23T08:58:21.099Z,1.48
2018-11-23T09:01:10.397Z,1.48
2018-11-23T09:03:59.911Z,1.63
2018-11-23T09:06:49.182Z,1.75
2018-11-23T09:09:38.311Z,1.65
2018-11-23T09:12:27.443Z,1.63
2018-11-23T09:15:17.636Z,1.41
2018-11-23T09:17:59.571Z,1.67
2018-11-23T09:23:51.677Z,1.64
2018-11-23T09:26:33.541Z,1.74
2018-11-23T09:29:22.656Z,1.65
2018-11-23T09:32:11.907Z,1.59
2018-11-23T09:35:14.814Z,1.67
2018-11-23T09:37:56.685Z,1.70
2018-11-23T09:40:46.275Z,1.53
2018-11-23T09:43:35.409Z,1.79
2018-11-23T09:46:24.821Z,1.84
2018-11-23T09:49:13.897Z,1.77
2018-11-23T09:52:02.964Z,1.81
2018-11-23T09:54:44.798Z,1.90
2018-11-23T09:57:33.850Z,1.92
2018-11-23T10:00:17.131Z,1.86
2018-11-23T10:03:06.776Z,1.94
2018-11-23T10:05:48.622Z,1.93
2018-11-23T10:08:37.704Z,1.83
2018-11-23T10:11:19.362Z,1.90
2018-11-23T10:14:08.409Z,1.95
2018-11-23T10:16:51.040Z,1.95
2018-11-23T10:19:40.136Z,1.95
2018-11-23T10:22:21.668Z,1.91
2018-11-23T10:25:11.992Z,1.83
2018-11-23T10:28:01.110Z,2.04
2018-11-23T10:30:50.432Z,2.11
2018-11-23T10:33:39.590Z,2.04
2018-11-23T10:36:28.692Z,2.02
2018-11-23T10:39:17.875Z,2.04
2018-11-23T10:42:06.990Z,2.06
2018-11-23T10:44:56.102Z,2.13
2018-11-23T10:47:45.657Z,2.06
2018-11-23T10:50:36.373Z,2.06
2018-11-23T10:53:25.498Z,2.04
2018-11-23T10:56:14.679Z,2.11
2018-11-23T10:59:04.015Z,2.17
2018-11-23T11:02:12.034Z,2.15
2018-11-23T11:05:13.372Z,2.20
2018-11-23T11:08:03.312Z,2.16
2018-11-23T11:10:52.684Z,2.09
2018-11-23T11:13:41.961Z,2.02
2018-11-23T11:16:31.075Z,2.01
2018-11-23T11:19:20.166Z,1.89
2018-11-23T11:22:09.307Z,2.09
2018-11-23T11:24:58.408Z,2.08
2018-11-23T11:27:47.526Z,2.06
2018-11-23T11:30:36.647Z,2.10
2018-11-23T11:33:25.836Z,2.07
2018-11-23T11:36:14.942Z,2.00
2018-11-23T11:42:09.141Z,2.00
2018-11-23T11:44:51.213Z,2.05
2018-11-23T11:50:14.412Z,2.09
2018-11-23T11:53:03.479Z,2.16
2018-11-23T11:55:45.747Z,2.10
2018-11-23T11:58:34.823Z,1.78
2018-11-23T12:01:16.833Z,1.62
2018-11-23T12:04:06.007Z,1.66
2018-11-23T12:06:47.706Z,1.67
2018-11-23T12:09:36.788Z,1.54
2018-11-23T12:12:19.140Z,1.51
2018-11-23T12:15:09.329Z,1.58
2018-11-23T12:17:50.896Z,1.51
2018-11-23T12:20:39.977Z,1.50
2018-11-23T12:23:29.023Z,1.65
2018-11-23T12:26:11.760Z,1.69
2018-11-23T12:29:00.967Z,2.05
2018-11-23T12:31:50.068Z,2.08
2018-11-23T12:34:39.090Z,1.80
2018-11-23T12:37:28.171Z,1.66
2018-11-23T12:40:11.930Z,1.53
2018-11-23T12:43:01.057Z,1.66
2018-11-23T12:45:43.251Z,1.83
2018-11-23T12:48:32.317Z,1.94
2018-11-23T12:51:14.263Z,1.86
2018-11-23T12:54:03.822Z,1.80
2018-11-23T12:56:45.565Z,1.73
2018-11-23T12:59:34.615Z,1.62
2018-11-23T13:02:17.213Z,1.59
2018-11-23T13:05:06.565Z,1.77
2018-11-23T13:07:48.718Z,1.72
2018-11-23T13:10:37.833Z,1.72
2018-11-23T13:13:19.629Z,1.64
2018-11-23T13:16:08.652Z,1.87
2018-11-23T13:18:51.001Z,1.69
2018-11-23T13:21:40.116Z,1.63
2018-11-23T13:24:22.195Z,1.74
2018-11-23T13:27:30.195Z,1.78
2018-11-23T13:30:20.336Z,1.88
2018-11-23T13:33:09.450Z,1.78
2018-11-23T13:35:59.012Z,1.70
2018-11-23T13:38:41.028Z,1.73
2018-11-23T13:41:30.072Z,1.87
2018-11-23T13:44:11.914Z,1.77
2018-11-23T13:47:00.982Z,1.80
2018-11-23T13:49:43.081Z,1.74
2018-11-23T13:52:32.141Z,1.72
2018-11-23T13:55:14.946Z,1.64
2018-11-23T13:58:03.977Z,1.65
2018-11-23T14:00:46.008Z,1.58
2018-11-23T14:03:35.178Z,1.53
2018-11-23T14:06:24.294Z,1.51
2018-11-23T14:09:13.500Z,1.55
2018-11-23T14:12:02.661Z,1.50
2018-11-23T14:14:51.799Z,1.54
2018-11-23T14:17:41.281Z,1.71
2018-11-23T14:20:30.655Z,1.66
2018-11-23T14:23:20.150Z,1.67
2018-11-23T14:26:09.325Z,1.47
2018-11-23T14:28:58.490Z,1.62
2018-11-23T14:31:47.598Z,1.58
2018-11-23T14:34:36.746Z,1.63
2018-11-23T14:37:26.270Z,1.74
2018-11-23T14:40:15.650Z,1.70
2018-11-23T14:43:05.135Z,1.90
2018-11-23T14:45:54.274Z,2.10
2018-11-23T14:48:43.436Z,2.08
2018-11-23T14:51:32.580Z,2.01
2018-11-23T14:54:21.663Z,1.97
2018-11-23T14:57:03.726Z,1.91
2018-11-23T14:59:52.867Z,1.94
2018-11-23T15:02:42.416Z,1.90
2018-11-23T15:05:31.518Z,1.83
2018-11-23T15:08:20.618Z,1.74
2018-11-23T15:11:09.714Z,1.82
2018-11-23T15:13:59.026Z,1.79
2018-11-23T15:16:48.150Z,1.89
2018-11-23T15:19:37.348Z,1.81
2018-11-23T15:22:26.842Z,1.89
2018-11-23T15:25:16.404Z,2.05
2018-11-23T15:28:06.185Z,2.02
2018-11-23T15:30:55.308Z,2.26
2018-11-23T15:33:44.396Z,2.24
2018-11-23T15:36:33.493Z,2.05
2018-11-23T15:39:22.548Z,2.04
2018-11-23T15:42:04.242Z,2.07
2018-11-23T15:44:53.738Z,2.21
2018-11-23T15:47:35.257Z,2.28
2018-11-23T15:50:25.745Z,2.38
2018-11-23T15:53:15.961Z,2.29
2018-11-23T15:55:58.310Z,2.20
2018-11-23T15:58:47.515Z,2.16
2018-11-23T16:01:36.636Z,2.09
2018-11-23T16:04:25.802Z,2.00
2018-11-23T16:07:14.981Z,2.00
2018-11-23T16:10:04.214Z,1.93
2018-11-23T16:13:12.242Z,1.94
2018-11-23T16:16:01.415Z,1.81
2018-11-23T16:18:50.454Z,1.72
2018-11-23T16:21:39.490Z,1.85
2018-11-23T16:24:29.681Z,1.95
2018-11-23T16:27:12.530Z,2.11
2018-11-23T16:30:01.723Z,2.00
2018-11-23T16:32:45.886Z,2.02
2018-11-23T16:35:36.210Z,2.01
2018-11-23T16:38:19.212Z,1.99
2018-11-23T16:41:08.300Z,2.01
2018-11-23T16:43:50.091Z,2.00
2018-11-23T16:46:39.141Z,1.98
2018-11-23T16:49:21.301Z,2.04
2018-11-23T16:52:10.399Z,2.04
2018-11-23T16:54:59.506Z,1.94
2018-11-23T16:57:53.278Z,2.04
2018-11-23T17:00:43.768Z,2.16
2018-11-23T17:03:32.852Z,2.15
2018-11-23T17:06:21.916Z,2.13
2018-11-23T17:09:04.506Z,2.22
2018-11-23T17:11:53.692Z,2.16
2018-11-23T17:14:42.776Z,2.34
2018-11-23T17:17:31.891Z,2.31
2018-11-23T17:20:22.346Z,2.30
2018-11-23T17:23:12.405Z,2.34
2018-11-23T17:26:01.533Z,2.36
2018-11-23T17:28:50.714Z,2.36
2018-11-23T17:31:40.721Z,2.29
2018-11-23T17:34:29.915Z,2.24
2018-11-23T17:37:19.014Z,2.18
2018-11-23T17:40:12.518Z,2.24
2018-11-23T17:43:01.629Z,2.23
2018-11-23T17:45:50.791Z,2.20
2018-11-23T17:48:40.023Z,2.20
2018-11-23T17:51:29.158Z,2.20
2018-11-23T17:54:18.309Z,2.24
2018-11-23T17:57:07.431Z,2.20
2018-11-23T17:59:56.663Z,2.21
2018-11-23T18:02:46.562Z,2.15
2018-11-23T18:05:36.125Z,2.27
2018-11-23T18:08:25.221Z,2.30
2018-11-23T18:11:07.615Z,2.28
2018-11-23T18:13:57.155Z,2.30
2018-11-23T18:16:46.427Z,2.30
2018-11-23T18:19:35.615Z,2.31
2018-11-23T18:22:24.817Z,2.29
2018-11-23T18:25:34.446Z,2.27
2018-11-23T18:28:23.619Z,2.35
2018-11-23T18:31:13.349Z,2.31
2018-11-23T18:34:03.316Z,2.31
2018-11-23T18:36:52.418Z,2.32
2018-11-23T18:39:22.136Z,2.26
2018-11-23T18:42:11.219Z,2.31
2018-11-23T18:44:53.495Z,2.28
2018-11-23T18:48:01.917Z,2.32
2018-11-23T18:50:51.511Z,2.26
2018-11-23T18:53:40.604Z,2.26
2018-11-23T18:56:29.749Z,2.26
2018-11-23T18:59:18.874Z,2.25
2018-11-23T19:02:08.414Z,2.28
2018-11-23T19:04:57.618Z,2.26
2018-11-23T19:07:46.766Z,2.25
2018-11-23T19:10:36.052Z,2.21
2018-11-23T19:13:25.256Z,2.27
2018-11-23T19:16:14.361Z,2.35
2018-11-23T19:19:03.420Z,2.32
2018-11-23T19:21:45.834Z,2.29
2018-11-23T19:24:34.941Z,2.44
2018-11-23T19:27:24.074Z,2.26
2018-11-23T19:30:17.214Z,2.19
2018-11-23T19:33:06.562Z,2.34
2018-11-23T19:35:55.712Z,2.19
2018-11-23T19:38:44.894Z,2.17
2018-11-23T19:41:34.054Z,2.14
2018-11-23T19:44:23.234Z,2.04
2018-11-23T19:47:12.394Z,2.03
2018-11-23T19:50:01.504Z,2.00
2018-11-23T19:52:50.644Z,2.07
2018-11-23T19:55:39.784Z,2.15
2018-11-23T19:58:28.996Z,2.33
2018-11-23T20:01:18.163Z,2.27
2018-11-23T20:04:07.410Z,2.32
2018-11-23T20:06:56.654Z,2.20
2018-11-23T20:09:46.080Z,2.18
2018-11-23T20:12:35.530Z,1.98
2018-11-23T20:15:21.782Z,1.89
2018-11-23T20:18:03.906Z,1.83
2018-11-23T20:20:53.048Z,1.88
2018-11-23T20:23:42.302Z,1.89
2018-11-23T20:26:31.966Z,2.02
2018-11-23T20:29:21.218Z,1.97
2018-11-23T20:32:10.358Z,1.94
2018-11-23T20:40:25.308Z,1.79
2018-11-23T20:43:14.520Z,2.00
2018-11-23T20:46:03.750Z,2.12
2018-11-23T20:48:53.350Z,2.14
2018-11-23T20:51:42.564Z,2.11
2018-11-23T20:54:31.987Z,2.23
2018-11-23T20:57:21.089Z,2.33
2018-11-23T21:00:02.848Z,2.12
2018-11-23T21:02:52.654Z,2.06
2018-11-23T21:05:41.716Z,1.95
2018-11-23T21:08:30.793Z,1.83
2018-11-23T21:11:13.446Z,1.91
2018-11-23T21:14:03.503Z,1.89
2018-11-23T21:16:45.226Z,1.87
2018-11-23T21:19:34.342Z,1.79
2018-11-23T21:22:17.597Z,1.95
2018-11-23T21:25:07.991Z,1.98
2018-11-23T21:27:53.584Z,1.85
2018-11-23T21:30:42.731Z,1.86
2018-11-23T21:33:25.181Z,1.94
2018-11-23T21:36:14.339Z,1.88
2018-11-23T21:38:56.317Z,1.83
2018-11-23T21:41:45.406Z,1.96
2018-11-23T21:44:27.945Z,2.03
2018-11-23T21:47:17.053Z,2.11
2018-11-23T21:49:58.759Z,2.10
2018-11-23T21:52:47.922Z,2.16
2018-11-23T21:55:30.102Z,2.31
2018-11-23T21:58:19.211Z,2.20
2018-11-23T22:01:01.014Z,2.26
2018-11-23T22:03:50.141Z,2.35
2018-11-23T22:06:32.049Z,2.23
2018-11-23T22:09:21.167Z,2.06
2018-11-23T22:12:07.359Z,2.19
2018-11-23T22:14:58.119Z,2.16
2018-11-23T22:17:40.243Z,2.27
2018-11-23T22:20:29.277Z,2.17
2018-11-23T22:23:10.924Z,2.17
2018-11-23T22:26:00.357Z,2.36
2018-11-23T22:28:42.745Z,2.39
2018-11-23T22:31:32.076Z,2.27
2018-11-23T22:34:14.689Z,2.17
2018-11-23T22:37:03.840Z,2.21
2018-11-23T22:39:50.137Z,2.23
2018-11-23T22:42:39.339Z,2.33
2018-11-23T22:45:21.201Z,2.28
2018-11-23T22:51:16.257Z,2.31
2018-11-23T22:53:59.739Z,2.35
2018-11-23T22:56:49.320Z,2.45
2018-11-23T22:59:38.704Z,2.46
2018-11-23T23:08:23.426Z,2.35
2018-11-23T23:14:13.851Z,2.57
2018-11-23T23:16:56.577Z,2.72
2018-11-23T23:19:45.724Z,2.81
2018-11-23T23:25:57.492Z,2.82
2018-11-23T23:28:42.371Z,2.75
2018-11-23T23:31:31.488Z,2.71
2018-11-23T23:34:13.871Z,2.72
2018-11-23T23:37:04.000Z,2.82
2018-11-23T23:39:45.589Z,3.00
2018-11-23T23:42:35.113Z,3.04
2018-11-23T23:45:25.244Z,2.97
2018-11-23T23:48:14.311Z,3.10
2018-11-23T23:50:57.880Z,3.08
2018-11-23T23:56:40.230Z,3.06
